Polfoss — V2PN7 — position and weather

sailwx.info

Track history (hours):
 
Tides and Currents Weather Stations Pressure Air Temp Water Temp Dewpoint Dewpoint Depression Visibility Wind Speed Wind Dir Waves Ship Positions

Polfoss

Last reported at 2015-May-23 04:33 UTC. Time now 2015-May-23 10:19 UTC.
Position N 59°12' E 005°21'.

Length 82 m; draft 6.2 m.

Type: Cargo ship. MMSI: 305081000.

Date/timePositionNaut miles runAvg speedWind from/ knotsBaromVisibWave heightAir tempDewpointWater temp
2015-May-23 04:33N 59°12' E 005°21'1312.8
2015-May-23 03:33N 59°02' E 005°37'5 4.6
2015-May-23 02:33N 59°02' E 005°46'1110.6
2015-May-23 01:33N 58°51' E 005°45'0 0.0
2015-May-23 00:34N 58°51' E 005°45'4 3.9
2015-May-22 23:33N 58°55' E 005°46'9 9.1
2015-May-22 22:33N 59°01' E 005°34'1312.8
2015-May-22 21:33N 58°49' E 005°25'22214.3
2015-May-22 06:06N 57°23' W 001°01'814.4
2015-May-22 05:32N 57°20' W 001°15'1413.8
2015-May-22 04:32N 57°15' W 001°38'1313.5
2015-May-22 03:33N 57°09' W 002°01'2 2.3
2015-May-22 02:33N 57°09' W 002°05'0 0.0
2015-May-22 01:29N 57°09' W 002°05'0 0.0
2015-May-22 00:34N 57°09' W 002°05'0 0.0
2015-May-21 23:34N 57°09' W 002°05'0 0.0
2015-May-21 22:33N 57°09' W 002°05'0 0.0
2015-May-21 21:30N 57°09' W 002°05'0 0.0
2015-May-21 20:33N 57°09' W 002°05'3 3.3
2015-May-21 19:33N 57°08' W 001°60'34413.8
2015-May-20 18:33N 52°36' E 004°06'1313.2
2015-May-20 17:33N 52°29' E 004°25'7 7.1
2015-May-20 16:33N 52°28' E 004°36'2 2.3
2015-May-20 15:33N 52°28' E 004°40'0 0.2
2015-May-20 14:33N 52°28' E 004°40'0 0.0
2015-May-20 13:33N 52°28' E 004°40'0 0.0
2015-May-20 12:33N 52°28' E 004°40'0 0.0
2015-May-20 11:33N 52°28' E 004°40'0 0.0
2015-May-20 10:33N 52°28' E 004°40'0 0.0
2015-May-20 09:33N 52°28' E 004°40'0 0.0
2015-May-20 08:33N 52°28' E 004°40'0 0.0
2015-May-20 07:33N 52°28' E 004°40'0 0.0
2015-May-20 06:33N 52°28' E 004°40'0 0.0
2015-May-20 05:33N 52°28' E 004°40'0 0.0
2015-May-20 04:33N 52°28' E 004°40'0 0.0
2015-May-20 03:33N 52°28' E 004°40'0 0.0
2015-May-20 02:33N 52°28' E 004°40'0 0.0
2015-May-20 01:33N 52°28' E 004°40'0 0.0
2015-May-20 00:33N 52°28' E 004°40'0 0.0
2015-May-19 23:33N 52°28' E 004°40'0 0.0
2015-May-19 22:33N 52°28' E 004°40'0 0.0
2015-May-19 21:33N 52°28' E 004°40'0 0.0
2015-May-19 20:33N 52°28' E 004°40'0 0.0
2015-May-19 19:33N 52°28' E 004°40'0 0.0
2015-May-19 18:33N 52°28' E 004°40'0 0.0
2015-May-19 17:33N 52°28' E 004°40'0 0.0
2015-May-19 16:33N 52°28' E 004°40'0 0.0
2015-May-19 15:33N 52°28' E 004°40'0 0.0
2015-May-19 14:33N 52°28' E 004°40'0 0.0
2015-May-19 13:33N 52°28' E 004°40'0 0.0
2015-May-19 12:33N 52°28' E 004°40'0 0.0
2015-May-19 11:33N 52°28' E 004°40'0 0.0
2015-May-19 10:33N 52°28' E 004°40'0 0.0
2015-May-19 09:33N 52°28' E 004°40'0 0.0
2015-May-19 08:33N 52°28' E 004°40'0 0.0
2015-May-19 07:33N 52°28' E 004°40'0 0.0
2015-May-19 06:33N 52°28' E 004°40'1 0.7
2015-May-19 05:33N 52°28' E 004°39'3 3.2
2015-May-19 04:33N 52°28' E 004°33'1514.6
2015-May-19 03:33N 52°29' E 004°09'9014.6
2015-May-18 21:23N 53°05' E 001°53'1416.3
2015-May-18 20:33N 53°11' E 001°33'3816.4
2015-May-18 18:16N 53°26' E 000°35'1115.7
2015-May-18 17:33N 53°31' E 000°18'1111.1
2015-May-18 16:33N 53°35' E 000°01'3 3.4
2015-May-18 15:34N 53°35' W 000°04'0 0.0
2015-May-18 14:33N 53°35' W 000°04'0 0.0
2015-May-18 13:34N 53°35' W 000°04'0 0.0
2015-May-18 12:34N 53°35' W 000°04'0 0.0
2015-May-18 11:34N 53°35' W 000°04'0 0.0
2015-May-18 10:34N 53°35' W 000°04'0 0.0
2015-May-18 09:33N 53°35' W 000°04'0 0.0
2015-May-18 08:33N 53°35' W 000°04'0 0.0
2015-May-18 07:34N 53°35' W 000°04'0 0.0
2015-May-18 06:33N 53°35' W 000°04'0 0.0
2015-May-18 05:34N 53°35' W 000°04'0 0.0
2015-May-18 04:33N 53°35' W 000°04'0 0.0
2015-May-18 03:33N 53°35' W 000°04'0 0.0
2015-May-18 02:34N 53°35' W 000°04'0 0.0
2015-May-18 01:33N 53°35' W 000°04'0 0.0
2015-May-18 00:34N 53°35' W 000°04'0 0.0
2015-May-17 23:33N 53°35' W 000°04'0 0.0
2015-May-17 22:33N 53°35' W 000°04'0 0.0
2015-May-17 21:34N 53°35' W 000°04'0 0.0
2015-May-17 20:34N 53°35' W 000°04'0 0.0
2015-May-17 19:33N 53°35' W 000°04'0 0.0
2015-May-17 18:33N 53°35' W 000°04'0 0.0
2015-May-17 17:34N 53°35' W 000°04'0 0.0
2015-May-17 16:33N 53°35' W 000°04'1 1.2
2015-May-17 15:33N 53°35' W 000°03'9 9.5
2015-May-17 14:34N 53°33' E 000°13'6 5.9
2015-May-17 13:33N 53°33' E 000°23'7 6.5
2015-May-17 12:32N 53°40' E 000°24'5 5.2
2015-May-17 11:33N 53°45' E 000°26'5 5.2
2015-May-17 10:32N 53°50' E 000°31'5 5.4
2015-May-17 09:33N 53°54' E 000°34'5 5.2
2015-May-17 08:31N 53°59' E 000°39'32613.1
2015-May-16 07:33N 58°45' E 005°22'1313.3
2015-May-16 06:33N 58°57' E 005°33'1212.4
2015-May-16 05:33N 59°08' E 005°23'  
2015-May-13 14:30N 63°38' E 009°28'7713.0
2015-May-13 08:33N 64°44' E 010°58'1413.7
2015-May-13 07:33N 64°54' E 011°20'1413.6
2015-May-13 06:34N 65°03' E 011°44'1413.8
2015-May-13 05:33N 65°16' E 011°56'  
Track history (hours):
 
Tides and Currents Weather Stations Pressure Air Temp Water Temp Dewpoint Dewpoint Depression Visibility Wind Speed Wind Dir Waves Ship Positions

Polfoss

Last reported at 2015-May-23 04:33 UTC. Time now 2015-May-23 10:19 UTC.
Position N 59°12' E 005°21'.

Length 82 m; draft 6.2 m.

Type: Cargo ship. MMSI: 305081000.

Date/timePositionNaut miles runAvg speedWind from/ knotsBaromVisibWave heightAir tempDewpointWater temp
2015-May-23 04:33N 59°12' E 005°21'1312.8
2015-May-23 03:33N 59°02' E 005°37'5 4.6
2015-May-23 02:33N 59°02' E 005°46'1110.6
2015-May-23 01:33N 58°51' E 005°45'0 0.0
2015-May-23 00:34N 58°51' E 005°45'4 3.9
2015-May-22 23:33N 58°55' E 005°46'9 9.1
2015-May-22 22:33N 59°01' E 005°34'1312.8
2015-May-22 21:33N 58°49' E 005°25'22214.3
2015-May-22 06:06N 57°23' W 001°01'814.4
2015-May-22 05:32N 57°20' W 001°15'1413.8
2015-May-22 04:32N 57°15' W 001°38'1313.5
2015-May-22 03:33N 57°09' W 002°01'2 2.3
2015-May-22 02:33N 57°09' W 002°05'0 0.0
2015-May-22 01:29N 57°09' W 002°05'0 0.0
2015-May-22 00:34N 57°09' W 002°05'0 0.0
2015-May-21 23:34N 57°09' W 002°05'0 0.0
2015-May-21 22:33N 57°09' W 002°05'0 0.0
2015-May-21 21:30N 57°09' W 002°05'0 0.0
2015-May-21 20:33N 57°09' W 002°05'3 3.3
2015-May-21 19:33N 57°08' W 001°60'34413.8
2015-May-20 18:33N 52°36' E 004°06'1313.2
2015-May-20 17:33N 52°29' E 004°25'7 7.1
2015-May-20 16:33N 52°28' E 004°36'2 2.3
2015-May-20 15:33N 52°28' E 004°40'0 0.2
2015-May-20 14:33N 52°28' E 004°40'0 0.0
2015-May-20 13:33N 52°28' E 004°40'0 0.0
2015-May-20 12:33N 52°28' E 004°40'0 0.0
2015-May-20 11:33N 52°28' E 004°40'0 0.0
2015-May-20 10:33N 52°28' E 004°40'0 0.0
2015-May-20 09:33N 52°28' E 004°40'0 0.0
2015-May-20 08:33N 52°28' E 004°40'0 0.0
2015-May-20 07:33N 52°28' E 004°40'0 0.0
2015-May-20 06:33N 52°28' E 004°40'0 0.0
2015-May-20 05:33N 52°28' E 004°40'0 0.0
2015-May-20 04:33N 52°28' E 004°40'0 0.0
2015-May-20 03:33N 52°28' E 004°40'0 0.0
2015-May-20 02:33N 52°28' E 004°40'0 0.0
2015-May-20 01:33N 52°28' E 004°40'0 0.0
2015-May-20 00:33N 52°28' E 004°40'0 0.0
2015-May-19 23:33N 52°28' E 004°40'0 0.0
2015-May-19 22:33N 52°28' E 004°40'0 0.0
2015-May-19 21:33N 52°28' E 004°40'0 0.0
2015-May-19 20:33N 52°28' E 004°40'0 0.0
2015-May-19 19:33N 52°28' E 004°40'0 0.0
2015-May-19 18:33N 52°28' E 004°40'0 0.0
2015-May-19 17:33N 52°28' E 004°40'0 0.0
2015-May-19 16:33N 52°28' E 004°40'0 0.0
2015-May-19 15:33N 52°28' E 004°40'0 0.0
2015-May-19 14:33N 52°28' E 004°40'0 0.0
2015-May-19 13:33N 52°28' E 004°40'0 0.0
2015-May-19 12:33N 52°28' E 004°40'0 0.0
2015-May-19 11:33N 52°28' E 004°40'0 0.0
2015-May-19 10:33N 52°28' E 004°40'0 0.0
2015-May-19 09:33N 52°28' E 004°40'0 0.0
2015-May-19 08:33N 52°28' E 004°40'0 0.0
2015-May-19 07:33N 52°28' E 004°40'0 0.0
2015-May-19 06:33N 52°28' E 004°40'1 0.7
2015-May-19 05:33N 52°28' E 004°39'3 3.2
2015-May-19 04:33N 52°28' E 004°33'1514.6
2015-May-19 03:33N 52°29' E 004°09'9014.6
2015-May-18 21:23N 53°05' E 001°53'1416.3
2015-May-18 20:33N 53°11' E 001°33'3816.4
2015-May-18 18:16N 53°26' E 000°35'1115.7
2015-May-18 17:33N 53°31' E 000°18'1111.1
2015-May-18 16:33N 53°35' E 000°01'3 3.4
2015-May-18 15:34N 53°35' W 000°04'0 0.0
2015-May-18 14:33N 53°35' W 000°04'0 0.0
2015-May-18 13:34N 53°35' W 000°04'0 0.0
2015-May-18 12:34N 53°35' W 000°04'0 0.0
2015-May-18 11:34N 53°35' W 000°04'0 0.0
2015-May-18 10:34N 53°35' W 000°04'0 0.0
2015-May-18 09:33N 53°35' W 000°04'0 0.0
2015-May-18 08:33N 53°35' W 000°04'0 0.0
2015-May-18 07:34N 53°35' W 000°04'0 0.0
2015-May-18 06:33N 53°35' W 000°04'0 0.0
2015-May-18 05:34N 53°35' W 000°04'0 0.0
2015-May-18 04:33N 53°35' W 000°04'0 0.0
2015-May-18 03:33N 53°35' W 000°04'0 0.0
2015-May-18 02:34N 53°35' W 000°04'0 0.0
2015-May-18 01:33N 53°35' W 000°04'0 0.0
2015-May-18 00:34N 53°35' W 000°04'0 0.0
2015-May-17 23:33N 53°35' W 000°04'0 0.0
2015-May-17 22:33N 53°35' W 000°04'0 0.0
2015-May-17 21:34N 53°35' W 000°04'0 0.0
2015-May-17 20:34N 53°35' W 000°04'0 0.0
2015-May-17 19:33N 53°35' W 000°04'0 0.0
2015-May-17 18:33N 53°35' W 000°04'0 0.0
2015-May-17 17:34N 53°35' W 000°04'0 0.0
2015-May-17 16:33N 53°35' W 000°04'1 1.2
2015-May-17 15:33N 53°35' W 000°03'9 9.5
2015-May-17 14:34N 53°33' E 000°13'6 5.9
2015-May-17 13:33N 53°33' E 000°23'7 6.5
2015-May-17 12:32N 53°40' E 000°24'5 5.2
2015-May-17 11:33N 53°45' E 000°26'5 5.2
2015-May-17 10:32N 53°50' E 000°31'5 5.4
2015-May-17 09:33N 53°54' E 000°34'5 5.2
2015-May-17 08:31N 53°59' E 000°39'32613.1
2015-May-16 07:33N 58°45' E 005°22'1313.3
2015-May-16 06:33N 58°57' E 005°33'1212.4
2015-May-16 05:33N 59°08' E 005°23'  
2015-May-13 14:30N 63°38' E 009°28'7713.0
2015-May-13 08:33N 64°44' E 010°58'1413.7
2015-May-13 07:33N 64°54' E 011°20'1413.6
2015-May-13 06:34N 65°03' E 011°44'1413.8
2015-May-13 05:33N 65°16' E 011°56'  

Dump ship's entire track history